Time;durP1;ratioP1;P1;durP2;ratioP2;P2;SDS_P1;SDS_P2;PMS_P1;PMS_P2;Temp;Humidity;BMP_temperature;BMP_pressure;BME280_temperature;BME280_humidity;BME280_pressure;Samples;Min_cycle;Max_cycle;Signal;HPM_P1;HPM_P2
2023/06/20 00:01:30;;;;;;;;;;;17.90;99.90;;;;;;5155851;27;19919;-46
2023/06/20 00:03:56;;;;;;;;;;;17.90;99.90;;;;;;5155852;27;19918;-47
2023/06/20 00:06:22;;;;;;;;;;;17.90;99.90;;;;;;5155827;27;19919;-46
2023/06/20 00:08:48;;;;;;;;;;;17.90;99.90;;;;;;5155578;27;20393;-47
2023/06/20 00:11:13;;;;;;;;;;;17.90;99.90;;;;;;5155601;27;19919;-46
2023/06/20 00:13:42;;;;;;;;;;;17.90;99.90;;;;;;5137434;27;19926;-46
2023/06/20 00:59:32;;;;;;;;;;;17.40;99.90;;;;;;5129860;28;20773;-46
2023/06/20 01:01:58;;;;;;;;;;;17.40;99.90;;;;;;5113493;28;19920;-45
2023/06/20 01:04:23;;;;;;;;;;;17.30;99.90;;;;;;5114005;28;19920;-46
2023/06/20 01:06:59;;;;;;;;;;;17.30;99.90;;;;;;5113931;28;19920;-46
2023/06/20 01:13:08;;;;;;;;;;;17.30;99.90;;;;;;5114445;28;19953;-46
2023/06/20 01:15:42;;;;;;;;;;;17.30;99.90;;;;;;5112692;28;19926;-47
2023/06/20 01:18:30;;;;;;;;;;;17.30;99.90;;;;;;5113845;28;20472;-45
2023/06/20 01:21:07;;;;;;;;;;;17.30;99.90;;;;;;5113833;28;19924;-46
2023/06/20 01:24:02;;;;;;;;;;;17.30;99.90;;;;;;5113791;28;19920;-45
2023/06/20 01:26:35;;;;;;;;;;;17.30;99.90;;;;;;5103908;28;20033;-46
2023/06/20 01:29:13;;;;;;;;;;;17.30;99.90;;;;;;5117403;28;19919;-45
2023/06/20 01:31:42;;;;;;;;;;;17.30;99.90;;;;;;5117506;28;19919;-45
2023/06/20 01:47:37;;;;;;;;;;;17.10;99.90;;;;;;5117849;28;19941;-45
2023/06/20 01:50:05;;;;;;;;;;;17.10;99.90;;;;;;5116984;28;19923;-48
2023/06/20 01:52:32;;;;;;;;;;;17.00;99.90;;;;;;5117150;28;19919;-49
2023/06/20 01:54:59;;;;;;;;;;;17.00;99.90;;;;;;5117383;28;20291;-47
2023/06/20 01:57:26;;;;;;;;;;;17.00;99.90;;;;;;5116850;28;20374;-45
2023/06/20 01:59:52;;;;;;;;;;;17.00;99.90;;;;;;5122350;27;19920;-46
2023/06/20 02:02:19;;;;;;;;;;;17.00;99.90;;;;;;5157848;27;19926;-45
2023/06/20 02:04:45;;;;;;;;;;;17.00;99.90;;;;;;5158702;27;19987;-45
2023/06/20 02:07:11;;;;;;;;;;;17.00;99.90;;;;;;5158089;27;19952;-46
2023/06/20 02:09:38;;;;;;;;;;;17.00;99.90;;;;;;5158284;27;19923;-45
2023/06/20 02:12:05;;;;;;;;;;;17.00;99.90;;;;;;5157878;27;19988;-45
2023/06/20 02:14:31;;;;;;;;;;;17.00;99.90;;;;;;5139498;27;20009;-45
2023/06/20 02:17:00;;;;;;;;;;;17.00;99.90;;;;;;5157627;27;19970;-45
2023/06/20 02:19:26;;;;;;;;;;;17.00;99.90;;;;;;5157920;27;19980;-45
2023/06/20 02:21:53;;;;;;;;;;;17.00;99.90;;;;;;5139246;27;19974;-46
2023/06/20 02:24:21;;;;;;;;;;;17.00;99.90;;;;;;5157816;27;19925;-45
2023/06/20 02:26:47;;;;;;;;;;;17.00;99.90;;;;;;5157619;27;19919;-45
2023/06/20 02:29:13;;;;;;;;;;;16.90;99.90;;;;;;5157438;27;19919;-45
2023/06/20 02:31:40;;;;;;;;;;;17.00;99.90;;;;;;5157457;27;20350;-46
2023/06/20 02:34:07;;;;;;;;;;;17.00;99.90;;;;;;5139533;27;19919;-45
2023/06/20 02:36:33;;;;;;;;;;;17.00;99.90;;;;;;5156452;27;20370;-45
2023/06/20 02:38:59;;;;;;;;;;;17.00;99.90;;;;;;5157759;27;19942;-45
2023/06/20 02:41:25;;;;;;;;;;;16.90;99.90;;;;;;5139300;27;20381;-47
2023/06/20 02:43:50;;;;;;;;;;;16.90;99.90;;;;;;5157322;27;20071;-45
2023/06/20 02:46:29;;;;;;;;;;;16.90;99.90;;;;;;5157579;27;20306;-46
2023/06/20 02:49:04;;;;;;;;;;;16.90;99.90;;;;;;5157510;27;19926;-46
2023/06/20 02:51:47;;;;;;;;;;;16.90;99.90;;;;;;5157509;27;20373;-46
2023/06/20 02:54:28;;;;;;;;;;;16.80;99.90;;;;;;5157410;27;19918;-46
2023/06/20 02:56:55;;;;;;;;;;;16.80;99.90;;;;;;5157349;27;19919;-45
2023/06/20 02:59:22;;;;;;;;;;;16.80;99.90;;;;;;5138811;27;19919;-48
2023/06/20 03:01:50;;;;;;;;;;;16.80;99.90;;;;;;5138425;27;19933;-45
2023/06/20 03:04:17;;;;;;;;;;;16.70;99.90;;;;;;5157196;27;19923;-45
2023/06/20 03:06:43;;;;;;;;;;;16.70;99.90;;;;;;5156893;27;20064;-45
2023/06/20 03:09:09;;;;;;;;;;;16.80;99.90;;;;;;5157056;27;19919;-46
2023/06/20 03:11:34;;;;;;;;;;;16.70;99.90;;;;;;5156995;27;19925;-45
2023/06/20 03:14:01;;;;;;;;;;;16.80;99.90;;;;;;5157014;27;19923;-45
2023/06/20 03:16:27;;;;;;;;;;;16.80;99.90;;;;;;5156927;27;19987;-46
2023/06/20 03:18:53;;;;;;;;;;;16.80;99.90;;;;;;5156806;27;20362;-47
2023/06/20 03:21:20;;;;;;;;;;;16.80;99.90;;;;;;5156739;27;19944;-45
2023/06/20 03:23:46;;;;;;;;;;;16.80;99.90;;;;;;5156971;27;20273;-46
2023/06/20 03:26:11;;;;;;;;;;;16.80;99.90;;;;;;5157177;27;19919;-47
2023/06/20 03:28:37;;;;;;;;;;;16.80;99.90;;;;;;5156690;27;19919;-46
2023/06/20 03:31:03;;;;;;;;;;;16.80;99.90;;;;;;5156837;27;20285;-46
2023/06/20 03:33:28;;;;;;;;;;;16.80;99.90;;;;;;5156608;27;19919;-45
2023/06/20 03:35:54;;;;;;;;;;;16.80;99.90;;;;;;5156477;27;20274;-45
2023/06/20 03:38:19;;;;;;;;;;;16.90;99.90;;;;;;5138196;27;19919;-46
2023/06/20 03:40:45;;;;;;;;;;;16.90;99.90;;;;;;5137895;27;19923;-46
2023/06/20 03:43:10;;;;;;;;;;;16.90;99.90;;;;;;5156324;27;19923;-45
2023/06/20 03:45:36;;;;;;;;;;;17.00;99.90;;;;;;5156347;27;19919;-47
2023/06/20 03:48:02;;;;;;;;;;;16.90;99.90;;;;;;5155967;27;20297;-45
2023/06/20 03:50:27;;;;;;;;;;;17.00;99.90;;;;;;5138057;27;19919;-46
2023/06/20 03:52:53;;;;;;;;;;;17.00;99.90;;;;;;5156029;27;19926;-45
2023/06/20 03:55:18;;;;;;;;;;;17.00;99.90;;;;;;5156214;27;19919;-46
2023/06/20 03:57:44;;;;;;;;;;;17.00;99.90;;;;;;5156134;27;19926;-46
2023/06/20 04:00:12;;;;;;;;;;;17.00;99.90;;;;;;5155895;27;20392;-46
2023/06/20 04:02:41;;;;;;;;;;;17.00;99.90;;;;;;5156002;27;20005;-45
2023/06/20 04:05:08;;;;;;;;;;;17.00;99.90;;;;;;5155917;27;19919;-46
2023/06/20 04:07:33;;;;;;;;;;;17.00;99.90;;;;;;5156075;27;19926;-46
2023/06/20 04:09:59;;;;;;;;;;;17.00;99.90;;;;;;5156042;27;20318;-46
2023/06/20 04:12:25;;;;;;;;;;;17.00;99.90;;;;;;5155997;27;20361;-45
2023/06/20 04:14:52;;;;;;;;;;;17.00;99.90;;;;;;5155988;27;19926;-45
2023/06/20 04:17:18;;;;;;;;;;;17.10;99.90;;;;;;5155715;27;20380;-46
2023/06/20 04:19:43;;;;;;;;;;;17.10;99.90;;;;;;5120585;27;19923;-46
2023/06/20 04:22:09;;;;;;;;;;;17.10;99.90;;;;;;5156156;27;20354;-45
2023/06/20 04:24:36;;;;;;;;;;;17.10;99.90;;;;;;5155864;27;20373;-46
2023/06/20 04:27:02;;;;;;;;;;;17.10;99.90;;;;;;5155811;27;19919;-45
2023/06/20 04:29:29;;;;;;;;;;;17.20;99.90;;;;;;5155704;27;19919;-46
2023/06/20 04:31:55;;;;;;;;;;;17.20;99.90;;;;;;5155789;27;19926;-45
2023/06/20 04:34:23;;;;;;;;;;;17.20;99.90;;;;;;5155582;27;20005;-45
2023/06/20 04:36:49;;;;;;;;;;;17.20;99.90;;;;;;5155736;27;19919;-45
2023/06/20 04:39:14;;;;;;;;;;;17.30;99.90;;;;;;5155665;27;19971;-45
2023/06/20 04:41:40;;;;;;;;;;;17.30;99.90;;;;;;5155598;27;19925;-45
2023/06/20 04:44:05;;;;;;;;;;;17.30;99.90;;;;;;5155624;27;19962;-45
2023/06/20 04:46:31;;;;;;;;;;;17.30;99.90;;;;;;5155458;27;19926;-46
2023/06/20 04:48:56;;;;;;;;;;;17.40;99.90;;;;;;5155409;27;19927;-45
2023/06/20 04:51:22;;;;;;;;;;;17.40;99.90;;;;;;5155593;27;19926;-46
2023/06/20 04:53:50;;;;;;;;;;;17.50;99.90;;;;;;5155528;27;19971;-45
2023/06/20 04:56:16;;;;;;;;;;;17.50;99.90;;;;;;5155538;27;19926;-45
2023/06/20 04:58:45;;;;;;;;;;;17.50;99.90;;;;;;5155546;27;20289;-45
2023/06/20 05:01:10;;;;;;;;;;;17.60;99.90;;;;;;5159610;27;19919;-45
2023/06/20 05:03:36;;;;;;;;;;;17.60;99.90;;;;;;5159388;27;20052;-47
2023/06/20 05:06:01;;;;;;;;;;;17.60;99.90;;;;;;5159737;27;19919;-45
2023/06/20 05:08:27;;;;;;;;;;;17.60;99.90;;;;;;5159478;27;19919;-46
2023/06/20 05:10:52;;;;;;;;;;;17.70;99.90;;;;;;5159285;27;19919;-47
2023/06/20 05:13:18;;;;;;;;;;;17.70;99.90;;;;;;5140857;27;19984;-46
2023/06/20 05:15:44;;;;;;;;;;;17.70;99.90;;;;;;5159217;27;19942;-46
2023/06/20 05:18:09;;;;;;;;;;;17.70;99.90;;;;;;5158975;27;19972;-46
2023/06/20 05:20:35;;;;;;;;;;;17.80;99.90;;;;;;5159175;27;19919;-46
2023/06/20 05:23:00;;;;;;;;;;;17.80;99.90;;;;;;5159003;27;19964;-45
2023/06/20 05:25:26;;;;;;;;;;;17.80;99.90;;;;;;5159411;27;19964;-50
2023/06/20 05:27:51;;;;;;;;;;;17.80;99.90;;;;;;5158923;27;20293;-46
2023/06/20 05:30:17;;;;;;;;;;;17.80;99.90;;;;;;5123243;27;19925;-48
2023/06/20 05:32:42;;;;;;;;;;;17.80;99.90;;;;;;5158836;27;19969;-46
2023/06/20 05:35:08;;;;;;;;;;;17.80;99.90;;;;;;5158859;27;19926;-46
2023/06/20 05:37:34;;;;;;;;;;;17.90;99.90;;;;;;5158848;27;20404;-48
2023/06/20 05:40:00;;;;;;;;;;;17.90;99.90;;;;;;5140872;27;20039;-46
2023/06/20 05:42:25;;;;;;;;;;;17.90;99.90;;;;;;5158637;27;20285;-46
2023/06/20 05:44:51;;;;;;;;;;;17.90;99.90;;;;;;5158505;27;19918;-46
2023/06/20 05:47:20;;;;;;;;;;;18.00;99.90;;;;;;5158355;27;19919;-46
2023/06/20 05:49:46;;;;;;;;;;;18.00;99.90;;;;;;5158632;27;19919;-48
2023/06/20 05:52:12;;;;;;;;;;;18.00;99.90;;;;;;5158513;27;20378;-48
2023/06/20 05:54:38;;;;;;;;;;;18.10;99.90;;;;;;5158120;27;19963;-46
2023/06/20 05:57:05;;;;;;;;;;;18.10;99.90;;;;;;5158201;27;19926;-47
2023/06/20 05:59:31;;;;;;;;;;;18.10;99.90;;;;;;5158491;27;19919;-48
2023/06/20 06:01:57;;;;;;;;;;;18.10;99.90;;;;;;5158162;27;19926;-48
2023/06/20 06:04:22;;;;;;;;;;;18.10;99.90;;;;;;5158347;27;20243;-49
2023/06/20 06:06:48;;;;;;;;;;;18.20;99.90;;;;;;5139890;27;19926;-48
2023/06/20 06:09:15;;;;;;;;;;;18.20;99.90;;;;;;5158291;27;19919;-46
2023/06/20 06:11:40;;;;;;;;;;;18.20;99.90;;;;;;5157900;27;19926;-47
2023/06/20 06:14:06;;;;;;;;;;;18.20;99.90;;;;;;5139797;27;19919;-47
2023/06/20 06:16:31;;;;;;;;;;;18.30;99.90;;;;;;5157976;27;19918;-45
2023/06/20 06:18:57;;;;;;;;;;;18.30;99.90;;;;;;5158146;27;20017;-47
2023/06/20 06:21:22;;;;;;;;;;;18.30;99.90;;;;;;5157940;27;19971;-46
2023/06/20 06:23:48;;;;;;;;;;;18.40;99.90;;;;;;5157909;27;20005;-46
2023/06/20 06:26:14;;;;;;;;;;;18.40;99.90;;;;;;5158055;27;19926;-45
2023/06/20 06:28:40;;;;;;;;;;;18.40;99.90;;;;;;5139688;27;19919;-45
2023/06/20 06:31:07;;;;;;;;;;;18.40;99.90;;;;;;5157647;27;19922;-45
2023/06/20 06:33:32;;;;;;;;;;;18.50;99.90;;;;;;5157559;27;19987;-45
2023/06/20 06:35:59;;;;;;;;;;;18.40;99.90;;;;;;5157923;27;20353;-46
2023/06/20 06:38:25;;;;;;;;;;;18.50;99.90;;;;;;5157748;27;19921;-46
2023/06/20 06:40:54;;;;;;;;;;;18.50;99.90;;;;;;5157527;27;19926;-45
2023/06/20 06:43:20;;;;;;;;;;;18.60;99.90;;;;;;5157575;27;19984;-45
2023/06/20 06:45:46;;;;;;;;;;;18.60;99.90;;;;;;5139031;27;19931;-45
2023/06/20 06:48:11;;;;;;;;;;;18.70;99.90;;;;;;5157587;27;19922;-46
2023/06/20 06:50:37;;;;;;;;;;;18.70;99.90;;;;;;5138925;27;19926;-45
2023/06/20 06:53:02;;;;;;;;;;;18.80;99.90;;;;;;5157473;27;19943;-46
2023/06/20 06:55:28;;;;;;;;;;;18.80;99.90;;;;;;5157374;27;20362;-46
2023/06/20 06:57:53;;;;;;;;;;;18.90;99.90;;;;;;5139155;27;19919;-45
2023/06/20 07:00:19;;;;;;;;;;;18.90;99.90;;;;;;5138449;27;19918;-46
2023/06/20 07:02:45;;;;;;;;;;;19.00;99.90;;;;;;5157286;27;20396;-46
2023/06/20 07:05:11;;;;;;;;;;;19.10;99.90;;;;;;5157441;27;20074;-45
2023/06/20 07:07:37;;;;;;;;;;;19.10;99.90;;;;;;5157595;27;19941;-45
2023/06/20 07:10:03;;;;;;;;;;;19.20;99.90;;;;;;5157144;27;20421;-46
2023/06/20 07:12:29;;;;;;;;;;;19.20;99.90;;;;;;5156882;27;19964;-45
2023/06/20 07:14:57;;;;;;;;;;;19.30;99.90;;;;;;5156670;27;20025;-45
2023/06/20 07:17:23;;;;;;;;;;;19.40;99.90;;;;;;5156975;27;19923;-47
2023/06/20 07:19:49;;;;;;;;;;;19.40;99.90;;;;;;5156924;27;20006;-47
2023/06/20 07:22:15;;;;;;;;;;;19.50;99.90;;;;;;5156128;27;20014;-46
2023/06/20 07:24:40;;;;;;;;;;;19.60;99.90;;;;;;5156728;27;19919;-45
2023/06/20 07:27:06;;;;;;;;;;;19.60;99.90;;;;;;5138534;27;19997;-45
2023/06/20 07:29:31;;;;;;;;;;;19.70;99.90;;;;;;5156543;27;19963;-46
2023/06/20 07:31:57;;;;;;;;;;;19.80;99.90;;;;;;5156934;27;19919;-46
2023/06/20 07:34:22;;;;;;;;;;;19.80;99.90;;;;;;5156602;27;20322;-49
2023/06/20 07:36:48;;;;;;;;;;;19.90;99.90;;;;;;5156260;27;19926;-45
2023/06/20 07:39:14;;;;;;;;;;;20.00;99.90;;;;;;5156468;27;19919;-46
2023/06/20 07:41:39;;;;;;;;;;;20.10;99.90;;;;;;5137963;27;19919;-45
2023/06/20 07:44:06;;;;;;;;;;;20.10;99.90;;;;;;5156300;27;19923;-46
2023/06/20 07:46:32;;;;;;;;;;;20.20;99.90;;;;;;5156554;27;19964;-45
2023/06/20 07:48:58;;;;;;;;;;;20.30;99.90;;;;;;5156357;27;19923;-49
2023/06/20 07:51:23;;;;;;;;;;;20.40;99.90;;;;;;5156383;27;19919;-47
2023/06/20 07:53:49;;;;;;;;;;;20.50;99.90;;;;;;5156411;27;20341;-46
2023/06/20 07:56:15;;;;;;;;;;;20.50;99.90;;;;;;5138187;27;20022;-49
2023/06/20 07:58:41;;;;;;;;;;;20.60;99.90;;;;;;5155983;27;19919;-45
2023/06/20 08:01:07;;;;;;;;;;;20.70;99.90;;;;;;5155783;27;19926;-46
2023/06/20 08:03:33;;;;;;;;;;;20.70;99.90;;;;;;5156118;27;19919;-46
2023/06/20 08:05:59;;;;;;;;;;;20.80;99.90;;;;;;5155986;27;20281;-47
2023/06/20 08:08:24;;;;;;;;;;;20.80;99.90;;;;;;5155911;27;19926;-45
2023/06/20 08:10:50;;;;;;;;;;;20.90;99.90;;;;;;5156109;27;19919;-45
2023/06/20 08:13:15;;;;;;;;;;;20.90;99.90;;;;;;5155926;27;19923;-46
2023/06/20 08:15:41;;;;;;;;;;;21.00;99.90;;;;;;5156036;27;19929;-45
2023/06/20 08:18:06;;;;;;;;;;;21.10;99.90;;;;;;5156003;27;19964;-46
2023/06/20 08:20:32;;;;;;;;;;;21.10;99.90;;;;;;5155960;27;20299;-44
2023/06/20 08:22:58;;;;;;;;;;;21.20;99.90;;;;;;5155929;27;19972;-45
2023/06/20 08:25:23;;;;;;;;;;;21.20;99.90;;;;;;5155816;27;20428;-46
2023/06/20 08:27:49;;;;;;;;;;;21.20;99.90;;;;;;5155771;27;19966;-45
2023/06/20 08:30:14;;;;;;;;;;;21.30;99.90;;;;;;5155515;27;20290;-45
2023/06/20 08:32:42;;;;;;;;;;;21.30;99.90;;;;;;5155717;27;19973;-45
2023/06/20 08:35:09;;;;;;;;;;;21.40;99.90;;;;;;5159932;27;20025;-45
2023/06/20 08:37:36;;;;;;;;;;;21.40;99.90;;;;;;5160157;27;20447;-45
2023/06/20 08:40:03;;;;;;;;;;;21.50;99.90;;;;;;5159976;27;19964;-45
2023/06/20 08:42:29;;;;;;;;;;;21.50;99.90;;;;;;5159768;27;19919;-46
2023/06/20 08:44:56;;;;;;;;;;;21.60;99.90;;;;;;5159937;27;19960;-45
2023/06/20 08:47:22;;;;;;;;;;;21.60;99.90;;;;;;5159702;27;19919;-46
2023/06/20 08:49:48;;;;;;;;;;;21.60;99.90;;;;;;5159529;27;20361;-46
2023/06/20 08:52:14;;;;;;;;;;;21.70;99.90;;;;;;5159777;27;20044;-49
2023/06/20 08:54:41;;;;;;;;;;;21.70;99.90;;;;;;5159486;27;19970;-45
2023/06/20 08:57:07;;;;;;;;;;;21.70;99.90;;;;;;5159678;27;20027;-48
2023/06/20 08:59:36;;;;;;;;;;;21.70;99.90;;;;;;5141228;27;20369;-46
2023/06/20 09:02:05;;;;;;;;;;;21.60;99.90;;;;;;5160009;27;19923;-45
2023/06/20 09:04:31;;;;;;;;;;;21.70;99.90;;;;;;5159548;27;19923;-45
2023/06/20 09:06:56;;;;;;;;;;;21.70;99.90;;;;;;5159392;27;20474;-45
2023/06/20 09:09:22;;;;;;;;;;;21.70;99.90;;;;;;5159489;27;20013;-46
2023/06/20 09:11:49;;;;;;;;;;;21.70;99.90;;;;;;5140654;27;19919;-46
2023/06/20 09:14:15;;;;;;;;;;;21.70;99.90;;;;;;5159321;27;19969;-46
2023/06/20 09:16:42;;;;;;;;;;;21.70;99.90;;;;;;5159462;27;19918;-46
2023/06/20 09:19:08;;;;;;;;;;;21.70;99.90;;;;;;5159354;27;19942;-46
2023/06/20 09:21:37;;;;;;;;;;;21.70;99.90;;;;;;5158949;27;19926;-47
2023/06/20 09:24:03;;;;;;;;;;;21.80;99.90;;;;;;5159174;27;19970;-45
2023/06/20 09:26:30;;;;;;;;;;;21.80;99.90;;;;;;5158979;27;20030;-46
2023/06/20 09:29:09;;;;;;;;;;;21.80;99.90;;;;;;5159030;27;19969;-46
2023/06/20 09:31:38;;;;;;;;;;;21.90;99.90;;;;;;5159187;27;19970;-45
2023/06/20 09:34:04;;;;;;;;;;;21.90;99.90;;;;;;5140729;27;19919;-46
2023/06/20 09:36:29;;;;;;;;;;;22.00;99.90;;;;;;5158728;27;19919;-46
2023/06/20 09:38:56;;;;;;;;;;;22.00;99.90;;;;;;5158811;27;19922;-49
2023/06/20 09:41:22;;;;;;;;;;;22.10;99.90;;;;;;5140660;27;20026;-49
2023/06/20 09:43:47;;;;;;;;;;;22.10;99.90;;;;;;5158804;27;19968;-46
2023/06/20 09:46:13;;;;;;;;;;;22.20;99.90;;;;;;5158146;27;19919;-45
2023/06/20 09:48:39;;;;;;;;;;;22.20;99.90;;;;;;5158698;27;20338;-45
2023/06/20 09:51:08;;;;;;;;;;;22.30;99.90;;;;;;5158474;27;20365;-45
2023/06/20 09:53:49;;;;;;;;;;;22.40;99.90;;;;;;5158483;27;19919;-46
2023/06/20 09:56:16;;;;;;;;;;;22.40;99.90;;;;;;5158572;27;20460;-47
2023/06/20 09:58:44;;;;;;;;;;;22.50;99.90;;;;;;5158654;27;19918;-46
2023/06/20 10:01:10;;;;;;;;;;;22.50;99.90;;;;;;5158394;27;19919;-46
2023/06/20 10:03:37;;;;;;;;;;;22.60;99.90;;;;;;5140233;27;19919;-47
2023/06/20 10:06:02;;;;;;;;;;;22.60;99.90;;;;;;5158328;27;19919;-46
2023/06/20 10:08:29;;;;;;;;;;;22.60;99.90;;;;;;5139950;27;20377;-46
2023/06/20 10:10:54;;;;;;;;;;;22.70;99.90;;;;;;5158217;27;19919;-45
2023/06/20 10:13:20;;;;;;;;;;;22.80;99.90;;;;;;5158040;27;19926;-46
2023/06/20 10:15:46;;;;;;;;;;;22.80;99.90;;;;;;5158142;27;20281;-45
2023/06/20 10:18:18;;;;;;;;;;;22.90;99.90;;;;;;5158210;27;19927;-46
2023/06/20 10:20:44;;;;;;;;;;;23.00;99.90;;;;;;5157719;27;19923;-47
2023/06/20 10:23:10;;;;;;;;;;;23.10;99.90;;;;;;5158043;27;19963;-45
2023/06/20 10:25:48;;;;;;;;;;;23.20;99.90;;;;;;5157930;27;20388;-46
2023/06/20 10:28:14;;;;;;;;;;;23.30;99.90;;;;;;5157819;27;19919;-45
2023/06/20 10:30:46;;;;;;;;;;;23.50;99.90;;;;;;5157895;27;19926;-46
2023/06/20 10:33:12;;;;;;;;;;;23.60;99.90;;;;;;5139413;27;19931;-46
2023/06/20 10:35:52;;;;;;;;;;;23.80;99.90;;;;;;5157787;27;19919;-46
2023/06/20 10:38:18;;;;;;;;;;;23.90;99.90;;;;;;5157637;27;19923;-47
2023/06/20 10:40:44;;;;;;;;;;;24.20;99.90;;;;;;5157727;27;19926;-47
2023/06/20 10:43:17;;;;;;;;;;;24.30;99.90;;;;;;5139287;27;20373;-48
2023/06/20 10:45:53;;;;;;;;;;;24.40;99.90;;;;;;5157552;27;19962;-47
2023/06/20 10:48:21;;;;;;;;;;;24.70;99.90;;;;;;5157564;27;19919;-47
2023/06/20 10:50:47;;;;;;;;;;;24.80;99.90;;;;;;5157480;27;19919;-46
2023/06/20 10:53:13;;;;;;;;;;;24.90;99.90;;;;;;5138947;27;20397;-46
2023/06/20 10:55:39;;;;;;;;;;;25.00;99.90;;;;;;5157493;27;19926;-46
2023/06/20 10:58:04;;;;;;;;;;;25.10;99.90;;;;;;5137877;27;19923;-47
2023/06/20 11:00:30;;;;;;;;;;;25.10;99.90;;;;;;5156795;27;20311;-46
2023/06/20 11:02:56;;;;;;;;;;;25.20;99.90;;;;;;5157426;27;20021;-47
2023/06/20 11:05:26;;;;;;;;;;;25.30;99.90;;;;;;5156890;27;20262;-46
2023/06/20 11:07:56;;;;;;;;;;;25.40;99.90;;;;;;5157047;27;19919;-47
2023/06/20 11:10:26;;;;;;;;;;;25.40;99.90;;;;;;5138656;27;19919;-46
2023/06/20 11:12:52;;;;;;;;;;;25.50;99.90;;;;;;5156771;27;19919;-46
2023/06/20 11:15:21;;;;;;;;;;;25.60;99.90;;;;;;5157452;27;20322;-45
2023/06/20 11:17:47;;;;;;;;;;;25.80;99.90;;;;;;5156864;27;20328;-47
2023/06/20 11:20:13;;;;;;;;;;;25.90;99.90;;;;;;5138704;27;20368;-46
2023/06/20 11:22:39;;;;;;;;;;;26.00;99.90;;;;;;5156801;27;19919;-46
2023/06/20 11:25:06;;;;;;;;;;;26.10;99.90;;;;;;5156586;27;19919;-46
2023/06/20 11:27:31;;;;;;;;;;;26.20;99.90;;;;;;5138535;27;19919;-46
2023/06/20 11:29:57;;;;;;;;;;;26.30;99.90;;;;;;5138518;27;19941;-46
2023/06/20 11:32:22;;;;;;;;;;;26.40;99.90;;;;;;5156690;27;20013;-47
2023/06/20 11:34:53;;;;;;;;;;;26.50;99.90;;;;;;5156584;27;19971;-48
2023/06/20 11:37:19;;;;;;;;;;;26.60;99.90;;;;;;5156484;27;20400;-46
2023/06/20 11:39:44;;;;;;;;;;;26.70;99.90;;;;;;5156312;27;19962;-46
2023/06/20 11:42:14;;;;;;;;;;;26.80;99.90;;;;;;5156213;27;19919;-48
2023/06/20 11:44:39;;;;;;;;;;;26.90;99.90;;;;;;5156467;27;19919;-47
2023/06/20 11:47:06;;;;;;;;;;;26.90;99.90;;;;;;5121127;27;20061;-48
2023/06/20 11:49:32;;;;;;;;;;;27.00;99.90;;;;;;5156273;27;19933;-48
2023/06/20 11:51:58;;;;;;;;;;;27.20;99.90;;;;;;5156320;27;19919;-48
2023/06/20 11:54:24;;;;;;;;;;;27.30;99.90;;;;;;5137952;27;19926;-48
2023/06/20 11:56:53;;;;;;;;;;;27.40;99.90;;;;;;5156019;27;19919;-50
2023/06/20 11:59:23;;;;;;;;;;;27.40;99.90;;;;;;5156612;27;19919;-48
2023/06/20 12:01:49;;;;;;;;;;;27.50;99.90;;;;;;5156097;27;19962;-50
2023/06/20 12:04:18;;;;;;;;;;;27.50;99.90;;;;;;5156009;27;19962;-47
2023/06/20 12:06:43;;;;;;;;;;;27.50;99.90;;;;;;5156029;27;19919;-51
2023/06/20 12:09:11;;;;;;;;;;;27.50;99.90;;;;;;5137434;27;20263;-50
2023/06/20 12:11:46;;;;;;;;;;;27.50;99.90;;;;;;5156186;27;20282;-49
2023/06/20 12:14:12;;;;;;;;;;;27.60;99.90;;;;;;5156159;27;19974;-48
2023/06/20 12:16:37;;;;;;;;;;;27.70;99.90;;;;;;5155818;27;20057;-48
2023/06/20 12:19:03;;;;;;;;;;;27.80;99.90;;;;;;5137712;27;19919;-48
2023/06/20 12:21:28;;;;;;;;;;;27.90;99.90;;;;;;5155741;27;19925;-50
2023/06/20 12:23:55;;;;;;;;;;;28.00;99.90;;;;;;5155779;27;19919;-51
2023/06/20 12:26:21;;;;;;;;;;;28.10;99.90;;;;;;5155858;27;19926;-50
2023/06/20 12:28:47;;;;;;;;;;;28.10;99.90;;;;;;5137625;27;19932;-50
2023/06/20 12:31:12;;;;;;;;;;;28.10;99.90;;;;;;5155750;27;19919;-49
2023/06/20 12:33:38;;;;;;;;;;;28.10;99.90;;;;;;5155779;27;19973;-48
2023/06/20 12:36:04;;;;;;;;;;;28.10;99.90;;;;;;5155617;27;19919;-48
2023/06/20 12:38:30;;;;;;;;;;;28.10;99.90;;;;;;5155942;27;19964;-48
2023/06/20 12:40:59;;;;;;;;;;;28.00;99.90;;;;;;5155664;27;19930;-49
2023/06/20 12:43:25;;;;;;;;;;;27.80;99.90;;;;;;5155643;27;19984;-49
2023/06/20 12:45:50;;;;;;;;;;;27.50;99.90;;;;;;5137416;27;19923;-48
2023/06/20 12:48:16;;;;;;;;;;;27.30;99.90;;;;;;5155417;27;19919;-49
2023/06/20 12:50:42;;;;;;;;;;;27.10;99.90;;;;;;5137013;27;19919;-47
2023/06/20 12:53:07;;;;;;;;;;;27.00;99.90;;;;;;5155583;27;19925;-47
2023/06/20 12:55:33;;;;;;;;;;;27.00;99.90;;;;;;5155597;27;20352;-48
2023/06/20 12:57:59;;;;;;;;;;;27.00;99.90;;;;;;5155233;27;19926;-47
2023/06/20 13:00:25;;;;;;;;;;;26.90;99.90;;;;;;5155477;27;19970;-46
2023/06/20 13:02:51;;;;;;;;;;;26.80;99.90;;;;;;5155463;27;19941;-47
2023/06/20 13:05:16;;;;;;;;;;;26.70;99.90;;;;;;5155194;27;20358;-49
2023/06/20 13:09:37;;;;;;;10.70;5.50;;;26.50;99.90;;;;;;5091567;27;20397;-48
2023/06/20 13:12:03;;;;;;;8.18;5.05;;;26.50;99.90;;;;;;5091180;28;20109;-47
2023/06/20 13:14:28;;;;;;;8.52;5.38;;;26.50;99.90;;;;;;5091390;28;20048;-46
2023/06/20 13:16:58;;;;;;;8.15;5.38;;;26.50;99.90;;;;;;5090961;28;20129;-45
2023/06/20 13:19:24;;;;;;;9.60;4.57;;;26.40;99.90;;;;;;5090943;28;20040;-48
2023/06/20 13:21:50;;;;;;;9.65;5.03;;;26.30;99.90;;;;;;5090936;28;20127;-47
2023/06/20 13:24:16;;;;;;;7.32;4.53;;;26.20;99.90;;;;;;5090665;28;20107;-46
2023/06/20 13:26:41;;;;;;;7.90;4.60;;;26.20;99.90;;;;;;5090929;28;20109;-47
2023/06/20 13:29:07;;;;;;;16.48;8.88;;;26.30;99.90;;;;;;5090750;28;20212;-45
2023/06/20 13:31:33;;;;;;;16.98;7.25;;;26.30;99.90;;;;;;5089720;28;20140;-46
2023/06/20 13:33:59;;;;;;;9.15;6.13;;;26.50;99.90;;;;;;5090932;28;20044;-47
2023/06/20 13:36:26;;;;;;;8.70;5.82;;;26.60;99.90;;;;;;5090574;28;20134;-45
2023/06/20 13:38:52;;;;;;;11.60;5.85;;;26.90;99.90;;;;;;5089450;28;20059;-45
2023/06/20 13:41:18;;;;;;;10.13;6.80;;;27.20;99.90;;;;;;5090835;28;20067;-46
2023/06/20 13:43:45;;;;;;;8.45;5.13;;;27.40;99.90;;;;;;5090501;28;20048;-46
2023/06/20 13:46:11;;;;;;;9.65;5.68;;;27.60;99.90;;;;;;5090508;28;20094;-45
2023/06/20 13:48:37;;;;;;;10.75;6.10;;;27.60;99.90;;;;;;5090495;28;20548;-46
2023/06/20 13:51:03;;;;;;;8.30;5.97;;;27.60;99.90;;;;;;5089004;28;20041;-46
2023/06/20 13:53:28;;;;;;;9.20;5.75;;;27.50;99.90;;;;;;5089333;28;20063;-45
2023/06/20 13:55:55;;;;;;;9.88;5.80;;;27.50;99.90;;;;;;5090273;28;20094;-45
2023/06/20 13:58:22;;;;;;;9.18;5.40;;;27.40;99.90;;;;;;5090287;28;20123;-47
2023/06/20 14:00:47;;;;;;;8.52;5.97;;;27.30;99.90;;;;;;5090277;28;20407;-46
2023/06/20 14:03:13;;;;;;;8.55;5.28;;;27.10;99.90;;;;;;5090245;28;20040;-46
2023/06/20 14:05:39;;;;;;;8.90;5.18;;;27.00;99.90;;;;;;5090101;28;20040;-45
2023/06/20 14:08:05;;;;;;;8.98;5.53;;;26.80;99.90;;;;;;5090474;28;20063;-45
2023/06/20 14:10:31;;;;;;;12.00;6.50;;;26.70;99.90;;;;;;5090202;28;20090;-45
2023/06/20 14:12:57;;;;;;;8.15;5.05;;;26.60;99.90;;;;;;5088935;28;20040;-45
2023/06/20 14:15:22;;;;;;;8.10;5.13;;;26.50;99.90;;;;;;5088853;28;20094;-45
2023/06/20 14:17:49;;;;;;;9.90;4.82;;;26.40;99.90;;;;;;5088908;28;20052;-45
2023/06/20 14:20:15;;;;;;;8.13;5.05;;;26.50;99.90;;;;;;5079419;28;20063;-44
2023/06/20 14:22:41;;;;;;;7.53;4.88;;;26.60;99.90;;;;;;5076028;28;20052;-47
2023/06/20 14:25:07;;;;;;;7.55;5.13;;;26.80;99.90;;;;;;5076284;28;20044;-46
2023/06/20 14:27:32;;;;;;;9.35;6.07;;;26.90;99.90;;;;;;5076223;28;20066;-46
2023/06/20 14:29:59;;;;;;;9.20;5.40;;;26.90;99.90;;;;;;5076261;28;20048;-46
2023/06/20 14:32:25;;;;;;;7.57;4.78;;;26.90;99.90;;;;;;5075253;28;20165;-48
2023/06/20 14:34:51;;;;;;;8.77;5.47;;;26.80;99.90;;;;;;5076028;28;20074;-47
2023/06/20 14:37:18;;;;;;;6.80;4.78;;;26.90;99.90;;;;;;5075963;28;20044;-46
2023/06/20 14:39:44;;;;;;;7.20;5.15;;;26.90;99.90;;;;;;5075859;28;20427;-46
2023/06/20 14:42:09;;;;;;;7.60;4.93;;;27.00;99.90;;;;;;5076254;28;20048;-47
2023/06/20 14:44:35;;;;;;;6.72;4.13;;;27.10;99.90;;;;;;5076030;28;20555;-46
2023/06/20 14:47:01;;;;;;;6.60;3.83;;;27.10;99.90;;;;;;5075852;28;20048;-51
2023/06/20 14:49:27;;;;;;;6.75;4.55;;;27.10;99.90;;;;;;5075637;28;20055;-47
2023/06/20 14:51:52;;;;;;;7.47;4.35;;;27.10;99.90;;;;;;5075455;28;20098;-48
2023/06/20 14:54:18;;;;;;;7.22;4.65;;;27.10;99.90;;;;;;5075661;28;20053;-46
2023/06/20 14:56:45;;;;;;;6.78;4.10;;;27.10;99.90;;;;;;5075765;28;20101;-48
2023/06/20 14:59:11;;;;;;;7.22;4.57;;;27.00;99.90;;;;;;5075613;28;20055;-49
2023/06/20 15:01:37;;;;;;;7.63;4.78;;;27.00;99.90;;;;;;5075781;28;20119;-49
2023/06/20 15:04:04;;;;;;;7.57;4.70;;;26.90;99.90;;;;;;5075590;28;20461;-47